sensor_id;sensor_type;location;lat;lon;timestamp;P1;durP1;ratioP1;P2;durP2;ratioP2
55575;SDS011;41437;45.478;9.116;2022-12-18T00:02:24;33.70;;;21.92;;
55575;SDS011;41437;45.478;9.116;2022-12-18T00:05:26;37.55;;;23.85;;
55575;SDS011;41437;45.478;9.116;2022-12-18T00:08:29;35.53;;;22.27;;
55575;SDS011;41437;45.478;9.116;2022-12-18T00:11:31;36.45;;;21.67;;
55575;SDS011;41437;45.478;9.116;2022-12-18T00:14:33;30.40;;;20.17;;
55575;SDS011;41437;45.478;9.116;2022-12-18T00:17:34;31.30;;;21.38;;
55575;SDS011;41437;45.478;9.116;2022-12-18T00:20:36;35.60;;;20.08;;
55575;SDS011;41437;45.478;9.116;2022-12-18T00:23:40;34.22;;;21.42;;
55575;SDS011;41437;45.478;9.116;2022-12-18T00:26:43;33.38;;;21.25;;
55575;SDS011;41437;45.478;9.116;2022-12-18T00:29:45;32.08;;;21.35;;
55575;SDS011;41437;45.478;9.116;2022-12-18T00:32:46;31.98;;;21.77;;
55575;SDS011;41437;45.478;9.116;2022-12-18T00:35:48;33.70;;;20.88;;
55575;SDS011;41437;45.478;9.116;2022-12-18T00:38:52;33.55;;;22.05;;
55575;SDS011;41437;45.478;9.116;2022-12-18T00:41:54;34.20;;;22.13;;
55575;SDS011;41437;45.478;9.116;2022-12-18T00:45:13;34.47;;;22.38;;
55575;SDS011;41437;45.478;9.116;2022-12-18T00:48:15;32.03;;;20.55;;
55575;SDS011;41437;45.478;9.116;2022-12-18T00:51:17;35.03;;;21.70;;
55575;SDS011;41437;45.478;9.116;2022-12-18T00:54:20;31.73;;;20.88;;
55575;SDS011;41437;45.478;9.116;2022-12-18T00:57:24;30.92;;;20.38;;
55575;SDS011;41437;45.478;9.116;2022-12-18T01:00:25;40.78;;;22.25;;
55575;SDS011;41437;45.478;9.116;2022-12-18T01:03:27;39.97;;;22.75;;
55575;SDS011;41437;45.478;9.116;2022-12-18T01:06:29;39.53;;;22.85;;
55575;SDS011;41437;45.478;9.116;2022-12-18T01:09:32;44.78;;;25.23;;
55575;SDS011;41437;45.478;9.116;2022-12-18T01:12:34;48.65;;;26.70;;
55575;SDS011;41437;45.478;9.116;2022-12-18T01:15:36;62.35;;;30.15;;
55575;SDS011;41437;45.478;9.116;2022-12-18T01:18:38;61.58;;;27.85;;
55575;SDS011;41437;45.478;9.116;2022-12-18T01:21:39;70.80;;;29.02;;
55575;SDS011;41437;45.478;9.116;2022-12-18T01:24:42;95.55;;;29.42;;
55575;SDS011;41437;45.478;9.116;2022-12-18T01:27:44;59.42;;;26.77;;
55575;SDS011;41437;45.478;9.116;2022-12-18T01:30:45;70.75;;;28.95;;
55575;SDS011;41437;45.478;9.116;2022-12-18T01:33:47;58.58;;;27.25;;
55575;SDS011;41437;45.478;9.116;2022-12-18T01:36:49;62.45;;;29.27;;
55575;SDS011;41437;45.478;9.116;2022-12-18T01:39:53;68.82;;;29.30;;
55575;SDS011;41437;45.478;9.116;2022-12-18T01:42:55;65.95;;;29.70;;
55575;SDS011;41437;45.478;9.116;2022-12-18T01:45:58;72.25;;;30.10;;
55575;SDS011;41437;45.478;9.116;2022-12-18T01:49:01;82.32;;;30.98;;
55575;SDS011;41437;45.478;9.116;2022-12-18T01:52:03;69.78;;;30.33;;
55575;SDS011;41437;45.478;9.116;2022-12-18T01:55:06;64.97;;;30.30;;
55575;SDS011;41437;45.478;9.116;2022-12-18T01:58:09;69.75;;;30.15;;
55575;SDS011;41437;45.478;9.116;2022-12-18T02:01:11;63.53;;;28.17;;
55575;SDS011;41437;45.478;9.116;2022-12-18T02:04:19;67.82;;;30.38;;
55575;SDS011;41437;45.478;9.116;2022-12-18T02:07:25;62.95;;;29.23;;
55575;SDS011;41437;45.478;9.116;2022-12-18T02:10:35;63.55;;;29.45;;
55575;SDS011;41437;45.478;9.116;2022-12-18T02:13:44;60.47;;;29.83;;
55575;SDS011;41437;45.478;9.116;2022-12-18T02:16:55;62.33;;;30.20;;
55575;SDS011;41437;45.478;9.116;2022-12-18T02:20:05;57.45;;;28.98;;
55575;SDS011;41437;45.478;9.116;2022-12-18T02:23:18;62.28;;;28.75;;
55575;SDS011;41437;45.478;9.116;2022-12-18T02:26:34;62.20;;;28.60;;
55575;SDS011;41437;45.478;9.116;2022-12-18T02:29:40;81.72;;;30.27;;
55575;SDS011;41437;45.478;9.116;2022-12-18T02:32:48;62.10;;;27.83;;
55575;SDS011;41437;45.478;9.116;2022-12-18T02:35:53;65.60;;;29.23;;
55575;SDS011;41437;45.478;9.116;2022-12-18T02:38:56;64.00;;;29.95;;
55575;SDS011;41437;45.478;9.116;2022-12-18T02:42:02;71.28;;;30.85;;
55575;SDS011;41437;45.478;9.116;2022-12-18T02:45:08;77.78;;;32.97;;
55575;SDS011;41437;45.478;9.116;2022-12-18T02:48:10;68.32;;;31.08;;
55575;SDS011;41437;45.478;9.116;2022-12-18T02:51:14;66.82;;;31.83;;
55575;SDS011;41437;45.478;9.116;2022-12-18T02:54:33;62.25;;;30.13;;
55575;SDS011;41437;45.478;9.116;2022-12-18T02:57:45;79.60;;;29.35;;
55575;SDS011;41437;45.478;9.116;2022-12-18T03:00:51;62.63;;;29.70;;
55575;SDS011;41437;45.478;9.116;2022-12-18T03:04:00;64.90;;;29.67;;
55575;SDS011;41437;45.478;9.116;2022-12-18T03:07:08;63.75;;;31.20;;
55575;SDS011;41437;45.478;9.116;2022-12-18T03:10:14;67.07;;;30.35;;
55575;SDS011;41437;45.478;9.116;2022-12-18T03:13:23;66.10;;;29.98;;
55575;SDS011;41437;45.478;9.116;2022-12-18T03:16:29;65.90;;;31.13;;
55575;SDS011;41437;45.478;9.116;2022-12-18T03:19:32;67.53;;;30.27;;
55575;SDS011;41437;45.478;9.116;2022-12-18T03:22:34;73.90;;;32.40;;
55575;SDS011;41437;45.478;9.116;2022-12-18T03:25:39;69.40;;;30.50;;
55575;SDS011;41437;45.478;9.116;2022-12-18T03:28:45;60.92;;;30.15;;
55575;SDS011;41437;45.478;9.116;2022-12-18T03:31:58;66.72;;;30.20;;
55575;SDS011;41437;45.478;9.116;2022-12-18T03:35:07;69.72;;;31.30;;
55575;SDS011;41437;45.478;9.116;2022-12-18T03:38:11;66.15;;;31.40;;
55575;SDS011;41437;45.478;9.116;2022-12-18T03:41:15;76.68;;;32.03;;
55575;SDS011;41437;45.478;9.116;2022-12-18T03:44:23;60.15;;;29.55;;
55575;SDS011;41437;45.478;9.116;2022-12-18T03:47:32;59.03;;;28.83;;
55575;SDS011;41437;45.478;9.116;2022-12-18T03:50:41;57.65;;;29.55;;
55575;SDS011;41437;45.478;9.116;2022-12-18T03:53:49;59.30;;;28.85;;
55575;SDS011;41437;45.478;9.116;2022-12-18T03:56:58;69.53;;;29.38;;
55575;SDS011;41437;45.478;9.116;2022-12-18T04:00:05;64.10;;;29.50;;
55575;SDS011;41437;45.478;9.116;2022-12-18T04:03:09;67.85;;;29.33;;
55575;SDS011;41437;45.478;9.116;2022-12-18T04:06:12;61.45;;;28.52;;
55575;SDS011;41437;45.478;9.116;2022-12-18T04:09:15;67.47;;;30.17;;
55575;SDS011;41437;45.478;9.116;2022-12-18T04:12:17;57.40;;;28.40;;
55575;SDS011;41437;45.478;9.116;2022-12-18T04:15:20;56.22;;;27.77;;
55575;SDS011;41437;45.478;9.116;2022-12-18T04:18:22;59.50;;;28.58;;
55575;SDS011;41437;45.478;9.116;2022-12-18T04:21:23;61.45;;;27.65;;
55575;SDS011;41437;45.478;9.116;2022-12-18T04:24:25;57.33;;;28.15;;
55575;SDS011;41437;45.478;9.116;2022-12-18T04:27:26;57.30;;;27.10;;
55575;SDS011;41437;45.478;9.116;2022-12-18T04:30:29;58.40;;;27.63;;
55575;SDS011;41437;45.478;9.116;2022-12-18T04:33:31;58.90;;;28.13;;
55575;SDS011;41437;45.478;9.116;2022-12-18T04:36:32;51.90;;;25.98;;
55575;SDS011;41437;45.478;9.116;2022-12-18T04:39:34;55.92;;;26.90;;
55575;SDS011;41437;45.478;9.116;2022-12-18T04:42:36;56.55;;;26.98;;
55575;SDS011;41437;45.478;9.116;2022-12-18T04:45:39;51.65;;;25.80;;
55575;SDS011;41437;45.478;9.116;2022-12-18T04:48:41;52.45;;;26.25;;
55575;SDS011;41437;45.478;9.116;2022-12-18T04:51:42;51.50;;;25.48;;
55575;SDS011;41437;45.478;9.116;2022-12-18T04:54:44;53.72;;;27.50;;
55575;SDS011;41437;45.478;9.116;2022-12-18T04:57:45;52.00;;;25.67;;
55575;SDS011;41437;45.478;9.116;2022-12-18T05:00:48;52.38;;;26.98;;
55575;SDS011;41437;45.478;9.116;2022-12-18T05:03:50;54.47;;;27.35;;
55575;SDS011;41437;45.478;9.116;2022-12-18T05:06:52;50.25;;;25.65;;
55575;SDS011;41437;45.478;9.116;2022-12-18T05:09:54;51.45;;;26.02;;
55575;SDS011;41437;45.478;9.116;2022-12-18T05:12:56;56.63;;;26.58;;
55575;SDS011;41437;45.478;9.116;2022-12-18T05:16:02;51.60;;;25.33;;
55575;SDS011;41437;45.478;9.116;2022-12-18T05:19:04;53.38;;;26.25;;
55575;SDS011;41437;45.478;9.116;2022-12-18T05:22:05;51.70;;;26.00;;
55575;SDS011;41437;45.478;9.116;2022-12-18T05:25:07;54.08;;;26.73;;
55575;SDS011;41437;45.478;9.116;2022-12-18T05:28:09;51.45;;;26.17;;
55575;SDS011;41437;45.478;9.116;2022-12-18T05:31:12;51.88;;;25.23;;
55575;SDS011;41437;45.478;9.116;2022-12-18T05:34:14;56.77;;;26.27;;
55575;SDS011;41437;45.478;9.116;2022-12-18T05:37:16;55.63;;;25.83;;
55575;SDS011;41437;45.478;9.116;2022-12-18T05:40:18;53.33;;;26.80;;
55575;SDS011;41437;45.478;9.116;2022-12-18T05:43:19;50.50;;;25.88;;
55575;SDS011;41437;45.478;9.116;2022-12-18T05:46:23;57.42;;;27.67;;
55575;SDS011;41437;45.478;9.116;2022-12-18T05:49:25;52.90;;;26.65;;
55575;SDS011;41437;45.478;9.116;2022-12-18T05:52:27;54.60;;;25.75;;
55575;SDS011;41437;45.478;9.116;2022-12-18T05:55:29;56.72;;;26.77;;
55575;SDS011;41437;45.478;9.116;2022-12-18T05:58:33;55.00;;;27.20;;
55575;SDS011;41437;45.478;9.116;2022-12-18T06:01:36;59.92;;;27.20;;
55575;SDS011;41437;45.478;9.116;2022-12-18T06:04:38;61.00;;;28.42;;
55575;SDS011;41437;45.478;9.116;2022-12-18T06:07:40;56.17;;;28.08;;
55575;SDS011;41437;45.478;9.116;2022-12-18T06:10:41;59.35;;;27.90;;
55575;SDS011;41437;45.478;9.116;2022-12-18T06:13:43;54.25;;;25.50;;
55575;SDS011;41437;45.478;9.116;2022-12-18T06:16:46;59.10;;;27.08;;
55575;SDS011;41437;45.478;9.116;2022-12-18T06:19:47;56.55;;;25.90;;
55575;SDS011;41437;45.478;9.116;2022-12-18T06:22:49;53.28;;;27.00;;
55575;SDS011;41437;45.478;9.116;2022-12-18T06:25:51;47.65;;;24.85;;
55575;SDS011;41437;45.478;9.116;2022-12-18T06:28:53;52.67;;;25.27;;
55575;SDS011;41437;45.478;9.116;2022-12-18T06:31:56;52.45;;;25.27;;
55575;SDS011;41437;45.478;9.116;2022-12-18T06:34:57;52.15;;;26.40;;
55575;SDS011;41437;45.478;9.116;2022-12-18T06:38:00;49.50;;;24.38;;
55575;SDS011;41437;45.478;9.116;2022-12-18T06:41:05;52.03;;;25.60;;
55575;SDS011;41437;45.478;9.116;2022-12-18T06:44:07;53.22;;;25.15;;
55575;SDS011;41437;45.478;9.116;2022-12-18T06:47:10;51.78;;;24.15;;
55575;SDS011;41437;45.478;9.116;2022-12-18T06:50:12;54.00;;;24.90;;
55575;SDS011;41437;45.478;9.116;2022-12-18T06:53:14;50.13;;;25.65;;
55575;SDS011;41437;45.478;9.116;2022-12-18T06:56:15;52.25;;;25.02;;
55575;SDS011;41437;45.478;9.116;2022-12-18T06:59:17;60.92;;;27.00;;
55575;SDS011;41437;45.478;9.116;2022-12-18T07:02:20;54.90;;;25.67;;
55575;SDS011;41437;45.478;9.116;2022-12-18T07:05:21;57.47;;;27.23;;
55575;SDS011;41437;45.478;9.116;2022-12-18T07:08:23;54.25;;;26.23;;
55575;SDS011;41437;45.478;9.116;2022-12-18T07:11:25;53.63;;;26.50;;
55575;SDS011;41437;45.478;9.116;2022-12-18T07:14:27;56.33;;;27.73;;
55575;SDS011;41437;45.478;9.116;2022-12-18T07:17:30;61.15;;;27.00;;
55575;SDS011;41437;45.478;9.116;2022-12-18T07:20:32;53.88;;;26.40;;
55575;SDS011;41437;45.478;9.116;2022-12-18T07:23:34;54.10;;;26.50;;
55575;SDS011;41437;45.478;9.116;2022-12-18T07:26:36;49.72;;;24.88;;
55575;SDS011;41437;45.478;9.116;2022-12-18T07:29:38;50.30;;;25.30;;
55575;SDS011;41437;45.478;9.116;2022-12-18T07:32:41;52.85;;;26.25;;
55575;SDS011;41437;45.478;9.116;2022-12-18T07:35:43;54.53;;;26.03;;
55575;SDS011;41437;45.478;9.116;2022-12-18T07:38:46;53.53;;;26.25;;
55575;SDS011;41437;45.478;9.116;2022-12-18T07:41:48;52.67;;;26.23;;
55575;SDS011;41437;45.478;9.116;2022-12-18T07:45:09;54.83;;;26.10;;
55575;SDS011;41437;45.478;9.116;2022-12-18T07:48:12;55.25;;;26.20;;
55575;SDS011;41437;45.478;9.116;2022-12-18T07:51:14;54.58;;;26.88;;
55575;SDS011;41437;45.478;9.116;2022-12-18T07:54:16;52.88;;;25.60;;
55575;SDS011;41437;45.478;9.116;2022-12-18T07:57:17;55.85;;;26.10;;
55575;SDS011;41437;45.478;9.116;2022-12-18T08:00:19;55.45;;;26.13;;
55575;SDS011;41437;45.478;9.116;2022-12-18T08:03:22;59.72;;;27.30;;
55575;SDS011;41437;45.478;9.116;2022-12-18T08:06:23;58.65;;;27.48;;
55575;SDS011;41437;45.478;9.116;2022-12-18T08:09:25;54.30;;;27.40;;
55575;SDS011;41437;45.478;9.116;2022-12-18T08:12:26;59.25;;;28.67;;
55575;SDS011;41437;45.478;9.116;2022-12-18T08:15:28;60.20;;;27.52;;
55575;SDS011;41437;45.478;9.116;2022-12-18T08:18:31;60.97;;;28.80;;
55575;SDS011;41437;45.478;9.116;2022-12-18T08:21:33;64.57;;;29.83;;
55575;SDS011;41437;45.478;9.116;2022-12-18T08:24:35;67.90;;;29.50;;
55575;SDS011;41437;45.478;9.116;2022-12-18T08:27:36;69.05;;;29.63;;
55575;SDS011;41437;45.478;9.116;2022-12-18T08:30:38;68.93;;;31.02;;
55575;SDS011;41437;45.478;9.116;2022-12-18T08:33:41;69.82;;;29.50;;
55575;SDS011;41437;45.478;9.116;2022-12-18T08:36:43;74.55;;;30.65;;
55575;SDS011;41437;45.478;9.116;2022-12-18T08:39:44;66.18;;;30.02;;
55575;SDS011;41437;45.478;9.116;2022-12-18T08:42:46;71.22;;;30.35;;
55575;SDS011;41437;45.478;9.116;2022-12-18T08:46:10;63.10;;;28.48;;
55575;SDS011;41437;45.478;9.116;2022-12-18T08:49:14;64.38;;;28.23;;
55575;SDS011;41437;45.478;9.116;2022-12-18T08:52:15;58.28;;;28.88;;
55575;SDS011;41437;45.478;9.116;2022-12-18T08:55:17;59.47;;;27.80;;
55575;SDS011;41437;45.478;9.116;2022-12-18T08:58:19;58.88;;;27.63;;
55575;SDS011;41437;45.478;9.116;2022-12-18T09:01:21;60.03;;;27.88;;
55575;SDS011;41437;45.478;9.116;2022-12-18T09:04:24;64.22;;;28.00;;
55575;SDS011;41437;45.478;9.116;2022-12-18T09:07:26;66.47;;;28.42;;
55575;SDS011;41437;45.478;9.116;2022-12-18T09:10:27;57.90;;;26.75;;
55575;SDS011;41437;45.478;9.116;2022-12-18T09:13:29;57.20;;;28.10;;
55575;SDS011;41437;45.478;9.116;2022-12-18T09:16:30;58.25;;;28.15;;
55575;SDS011;41437;45.478;9.116;2022-12-18T09:19:36;59.13;;;27.40;;
55575;SDS011;41437;45.478;9.116;2022-12-18T09:22:37;63.88;;;28.30;;
55575;SDS011;41437;45.478;9.116;2022-12-18T09:25:40;58.77;;;27.53;;
55575;SDS011;41437;45.478;9.116;2022-12-18T09:28:42;57.40;;;26.95;;
55575;SDS011;41437;45.478;9.116;2022-12-18T09:31:44;62.30;;;29.05;;
55575;SDS011;41437;45.478;9.116;2022-12-18T09:34:47;60.92;;;28.42;;
55575;SDS011;41437;45.478;9.116;2022-12-18T09:37:49;57.63;;;27.02;;
55575;SDS011;41437;45.478;9.116;2022-12-18T09:40:51;61.90;;;27.85;;
55575;SDS011;41437;45.478;9.116;2022-12-18T09:43:57;52.60;;;26.77;;
55575;SDS011;41437;45.478;9.116;2022-12-18T09:47:05;62.33;;;30.50;;
55575;SDS011;41437;45.478;9.116;2022-12-18T09:50:17;59.88;;;28.52;;
55575;SDS011;41437;45.478;9.116;2022-12-18T09:53:26;61.35;;;28.20;;
55575;SDS011;41437;45.478;9.116;2022-12-18T09:56:35;50.17;;;26.85;;
55575;SDS011;41437;45.478;9.116;2022-12-18T09:59:40;51.53;;;26.88;;
55575;SDS011;41437;45.478;9.116;2022-12-18T10:02:45;53.35;;;26.75;;
55575;SDS011;41437;45.478;9.116;2022-12-18T10:05:51;50.15;;;27.02;;
55575;SDS011;41437;45.478;9.116;2022-12-18T10:08:59;51.15;;;26.83;;
55575;SDS011;41437;45.478;9.116;2022-12-18T10:12:07;53.35;;;26.95;;
55575;SDS011;41437;45.478;9.116;2022-12-18T10:15:15;49.53;;;26.58;;
55575;SDS011;41437;45.478;9.116;2022-12-18T10:18:25;53.95;;;26.70;;
55575;SDS011;41437;45.478;9.116;2022-12-18T10:21:39;51.10;;;25.75;;
55575;SDS011;41437;45.478;9.116;2022-12-18T10:24:50;47.90;;;25.92;;
55575;SDS011;41437;45.478;9.116;2022-12-18T10:28:00;44.40;;;24.35;;
55575;SDS011;41437;45.478;9.116;2022-12-18T10:31:12;48.25;;;25.15;;
55575;SDS011;41437;45.478;9.116;2022-12-18T10:34:18;43.53;;;24.50;;
55575;SDS011;41437;45.478;9.116;2022-12-18T10:37:23;44.60;;;25.35;;
55575;SDS011;41437;45.478;9.116;2022-12-18T10:40:27;42.28;;;24.67;;
55575;SDS011;41437;45.478;9.116;2022-12-18T10:43:29;46.13;;;25.13;;
55575;SDS011;41437;45.478;9.116;2022-12-18T10:46:32;41.65;;;24.17;;
55575;SDS011;41437;45.478;9.116;2022-12-18T10:49:34;45.63;;;25.20;;
55575;SDS011;41437;45.478;9.116;2022-12-18T10:52:38;45.67;;;26.45;;
55575;SDS011;41437;45.478;9.116;2022-12-18T10:55:40;45.80;;;24.30;;
55575;SDS011;41437;45.478;9.116;2022-12-18T10:58:54;46.08;;;25.13;;
55575;SDS011;41437;45.478;9.116;2022-12-18T11:01:57;48.13;;;27.98;;
55575;SDS011;41437;45.478;9.116;2022-12-18T11:04:59;45.85;;;26.77;;
55575;SDS011;41437;45.478;9.116;2022-12-18T11:08:03;50.03;;;26.80;;
55575;SDS011;41437;45.478;9.116;2022-12-18T11:11:07;50.80;;;27.60;;
55575;SDS011;41437;45.478;9.116;2022-12-18T11:14:21;47.55;;;26.17;;
55575;SDS011;41437;45.478;9.116;2022-12-18T11:17:27;47.88;;;27.02;;
55575;SDS011;41437;45.478;9.116;2022-12-18T11:20:31;42.80;;;25.23;;
55575;SDS011;41437;45.478;9.116;2022-12-18T11:23:46;46.50;;;26.15;;
55575;SDS011;41437;45.478;9.116;2022-12-18T11:26:51;48.25;;;26.77;;
55575;SDS011;41437;45.478;9.116;2022-12-18T11:52:09;73.00;;;38.53;;
55575;SDS011;41437;45.478;9.116;2022-12-18T12:02:25;66.55;;;35.25;;
55575;SDS011;41437;45.478;9.116;2022-12-18T12:05:46;70.82;;;36.50;;
55575;SDS011;41437;45.478;9.116;2022-12-18T12:09:03;71.60;;;37.10;;
55575;SDS011;41437;45.478;9.116;2022-12-18T12:12:16;75.53;;;37.88;;
55575;SDS011;41437;45.478;9.116;2022-12-18T12:15:46;73.35;;;38.78;;
55575;SDS011;41437;45.478;9.116;2022-12-18T12:22:15;73.20;;;38.33;;
55575;SDS011;41437;45.478;9.116;2022-12-18T12:25:31;77.30;;;40.65;;
55575;SDS011;41437;45.478;9.116;2022-12-18T12:28:47;74.10;;;39.05;;
55575;SDS011;41437;45.478;9.116;2022-12-18T12:32:01;74.18;;;38.47;;
55575;SDS011;41437;45.478;9.116;2022-12-18T12:35:21;69.82;;;36.97;;
55575;SDS011;41437;45.478;9.116;2022-12-18T12:38:33;72.55;;;36.13;;
55575;SDS011;41437;45.478;9.116;2022-12-18T12:41:44;66.75;;;35.95;;
55575;SDS011;41437;45.478;9.116;2022-12-18T12:45:05;69.03;;;36.05;;
55575;SDS011;41437;45.478;9.116;2022-12-18T12:48:17;62.85;;;33.80;;
55575;SDS011;41437;45.478;9.116;2022-12-18T12:51:26;57.72;;;32.05;;
55575;SDS011;41437;45.478;9.116;2022-12-18T12:54:31;59.85;;;32.95;;
55575;SDS011;41437;45.478;9.116;2022-12-18T12:57:36;56.58;;;31.88;;
55575;SDS011;41437;45.478;9.116;2022-12-18T13:00:41;48.67;;;28.75;;
55575;SDS011;41437;45.478;9.116;2022-12-18T13:03:53;52.95;;;30.80;;
55575;SDS011;41437;45.478;9.116;2022-12-18T13:07:03;54.58;;;30.38;;
55575;SDS011;41437;45.478;9.116;2022-12-18T13:10:13;52.33;;;28.67;;
55575;SDS011;41437;45.478;9.116;2022-12-18T13:13:27;49.80;;;28.30;;
55575;SDS011;41437;45.478;9.116;2022-12-18T13:16:51;49.45;;;29.25;;
55575;SDS011;41437;45.478;9.116;2022-12-18T13:20:02;49.08;;;29.27;;
55575;SDS011;41437;45.478;9.116;2022-12-18T13:23:26;50.90;;;27.95;;
55575;SDS011;41437;45.478;9.116;2022-12-18T13:26:36;44.88;;;27.38;;
55575;SDS011;41437;45.478;9.116;2022-12-18T13:29:43;46.63;;;28.60;;
55575;SDS011;41437;45.478;9.116;2022-12-18T13:32:45;45.83;;;27.38;;
55575;SDS011;41437;45.478;9.116;2022-12-18T13:35:51;48.63;;;29.13;;
55575;SDS011;41437;45.478;9.116;2022-12-18T13:42:31;43.80;;;25.95;;
55575;SDS011;41437;45.478;9.116;2022-12-18T13:46:16;44.40;;;26.85;;
55575;SDS011;41437;45.478;9.116;2022-12-18T13:49:22;42.75;;;26.42;;
55575;SDS011;41437;45.478;9.116;2022-12-18T13:52:33;49.17;;;27.58;;
55575;SDS011;41437;45.478;9.116;2022-12-18T13:55:37;46.60;;;28.23;;
55575;SDS011;41437;45.478;9.116;2022-12-18T13:58:39;46.17;;;27.15;;
55575;SDS011;41437;45.478;9.116;2022-12-18T14:01:43;49.63;;;28.50;;
55575;SDS011;41437;45.478;9.116;2022-12-18T14:04:46;47.10;;;28.63;;
55575;SDS011;41437;45.478;9.116;2022-12-18T14:07:49;48.50;;;28.27;;
55575;SDS011;41437;45.478;9.116;2022-12-18T14:10:51;47.13;;;28.65;;
55575;SDS011;41437;45.478;9.116;2022-12-18T14:13:53;47.00;;;28.95;;
55575;SDS011;41437;45.478;9.116;2022-12-18T14:16:56;46.80;;;29.20;;
55575;SDS011;41437;45.478;9.116;2022-12-18T14:19:58;49.65;;;29.52;;
55575;SDS011;41437;45.478;9.116;2022-12-18T14:22:59;44.03;;;27.63;;
55575;SDS011;41437;45.478;9.116;2022-12-18T14:26:02;47.13;;;28.90;;
55575;SDS011;41437;45.478;9.116;2022-12-18T14:29:21;47.47;;;29.52;;
55575;SDS011;41437;45.478;9.116;2022-12-18T14:32:28;49.28;;;29.00;;
55575;SDS011;41437;45.478;9.116;2022-12-18T14:35:30;46.45;;;28.00;;
55575;SDS011;41437;45.478;9.116;2022-12-18T14:38:32;49.72;;;29.50;;
55575;SDS011;41437;45.478;9.116;2022-12-18T14:41:35;47.40;;;29.67;;
55575;SDS011;41437;45.478;9.116;2022-12-18T14:44:37;50.63;;;29.63;;
55575;SDS011;41437;45.478;9.116;2022-12-18T14:47:42;49.42;;;29.73;;
55575;SDS011;41437;45.478;9.116;2022-12-18T14:50:45;52.38;;;29.27;;
55575;SDS011;41437;45.478;9.116;2022-12-18T14:53:56;49.50;;;28.70;;
55575;SDS011;41437;45.478;9.116;2022-12-18T14:57:01;51.55;;;30.13;;
55575;SDS011;41437;45.478;9.116;2022-12-18T15:00:06;54.65;;;30.52;;
55575;SDS011;41437;45.478;9.116;2022-12-18T15:03:18;52.97;;;32.13;;
55575;SDS011;41437;45.478;9.116;2022-12-18T15:06:25;51.70;;;29.58;;
55575;SDS011;41437;45.478;9.116;2022-12-18T15:09:30;53.28;;;29.77;;
55575;SDS011;41437;45.478;9.116;2022-12-18T15:12:33;49.90;;;30.65;;
55575;SDS011;41437;45.478;9.116;2022-12-18T15:15:44;51.05;;;29.52;;
55575;SDS011;41437;45.478;9.116;2022-12-18T15:18:49;49.90;;;30.00;;
55575;SDS011;41437;45.478;9.116;2022-12-18T15:21:51;50.97;;;29.90;;
55575;SDS011;41437;45.478;9.116;2022-12-18T15:24:52;51.90;;;30.65;;
55575;SDS011;41437;45.478;9.116;2022-12-18T15:27:55;49.30;;;30.63;;
55575;SDS011;41437;45.478;9.116;2022-12-18T15:31:00;53.55;;;31.98;;
55575;SDS011;41437;45.478;9.116;2022-12-18T15:34:12;52.67;;;31.33;;
55575;SDS011;41437;45.478;9.116;2022-12-18T15:37:15;51.78;;;30.90;;
55575;SDS011;41437;45.478;9.116;2022-12-18T15:40:17;53.38;;;31.73;;
55575;SDS011;41437;45.478;9.116;2022-12-18T15:43:20;53.50;;;29.95;;
55575;SDS011;41437;45.478;9.116;2022-12-18T15:46:36;51.92;;;30.92;;
55575;SDS011;41437;45.478;9.116;2022-12-18T15:49:39;51.17;;;31.08;;
55575;SDS011;41437;45.478;9.116;2022-12-18T15:52:41;50.30;;;29.30;;
55575;SDS011;41437;45.478;9.116;2022-12-18T15:59:12;55.17;;;31.23;;
55575;SDS011;41437;45.478;9.116;2022-12-18T16:02:16;58.33;;;32.50;;
55575;SDS011;41437;45.478;9.116;2022-12-18T16:05:20;56.10;;;32.78;;
55575;SDS011;41437;45.478;9.116;2022-12-18T16:08:23;52.20;;;31.45;;
55575;SDS011;41437;45.478;9.116;2022-12-18T16:11:25;57.47;;;32.85;;
55575;SDS011;41437;45.478;9.116;2022-12-18T16:17:40;58.40;;;32.00;;
55575;SDS011;41437;45.478;9.116;2022-12-18T16:20:43;61.10;;;34.55;;
55575;SDS011;41437;45.478;9.116;2022-12-18T16:23:44;58.80;;;33.15;;
55575;SDS011;41437;45.478;9.116;2022-12-18T16:26:46;59.33;;;31.85;;
55575;SDS011;41437;45.478;9.116;2022-12-18T16:29:48;63.05;;;35.45;;
55575;SDS011;41437;45.478;9.116;2022-12-18T16:32:49;64.18;;;34.58;;
55575;SDS011;41437;45.478;9.116;2022-12-18T16:35:53;60.63;;;35.22;;
55575;SDS011;41437;45.478;9.116;2022-12-18T16:38:54;64.68;;;35.15;;
55575;SDS011;41437;45.478;9.116;2022-12-18T16:41:56;58.90;;;32.53;;
55575;SDS011;41437;45.478;9.116;2022-12-18T16:44:58;58.80;;;32.10;;
55575;SDS011;41437;45.478;9.116;2022-12-18T16:48:00;59.97;;;34.22;;
55575;SDS011;41437;45.478;9.116;2022-12-18T16:51:03;60.88;;;33.85;;
55575;SDS011;41437;45.478;9.116;2022-12-18T16:54:06;65.78;;;35.20;;
55575;SDS011;41437;45.478;9.116;2022-12-18T16:57:08;64.35;;;34.25;;
55575;SDS011;41437;45.478;9.116;2022-12-18T17:00:13;67.10;;;35.90;;
55575;SDS011;41437;45.478;9.116;2022-12-18T17:06:20;62.03;;;33.97;;
55575;SDS011;41437;45.478;9.116;2022-12-18T17:09:22;68.07;;;36.08;;
55575;SDS011;41437;45.478;9.116;2022-12-18T17:12:25;65.40;;;34.83;;
55575;SDS011;41437;45.478;9.116;2022-12-18T17:15:26;64.63;;;35.45;;
55575;SDS011;41437;45.478;9.116;2022-12-18T17:18:28;63.72;;;34.67;;
55575;SDS011;41437;45.478;9.116;2022-12-18T17:21:31;63.63;;;34.22;;
55575;SDS011;41437;45.478;9.116;2022-12-18T17:24:33;62.73;;;33.87;;
55575;SDS011;41437;45.478;9.116;2022-12-18T17:27:34;66.57;;;34.38;;
55575;SDS011;41437;45.478;9.116;2022-12-18T17:30:36;66.32;;;34.45;;
55575;SDS011;41437;45.478;9.116;2022-12-18T17:33:38;62.80;;;33.75;;
55575;SDS011;41437;45.478;9.116;2022-12-18T17:36:41;63.85;;;34.38;;
55575;SDS011;41437;45.478;9.116;2022-12-18T17:39:43;62.35;;;33.17;;
55575;SDS011;41437;45.478;9.116;2022-12-18T17:42:45;64.75;;;34.10;;
55575;SDS011;41437;45.478;9.116;2022-12-18T17:45:46;62.53;;;33.85;;
55575;SDS011;41437;45.478;9.116;2022-12-18T17:48:48;68.55;;;35.53;;
55575;SDS011;41437;45.478;9.116;2022-12-18T17:51:51;65.38;;;36.33;;
55575;SDS011;41437;45.478;9.116;2022-12-18T17:54:52;66.28;;;34.83;;
55575;SDS011;41437;45.478;9.116;2022-12-18T17:57:54;68.03;;;36.45;;
55575;SDS011;41437;45.478;9.116;2022-12-18T18:00:56;70.93;;;36.70;;
55575;SDS011;41437;45.478;9.116;2022-12-18T18:03:58;71.15;;;35.80;;
55575;SDS011;41437;45.478;9.116;2022-12-18T18:07:02;74.28;;;35.72;;
55575;SDS011;41437;45.478;9.116;2022-12-18T18:10:04;70.18;;;35.80;;
55575;SDS011;41437;45.478;9.116;2022-12-18T18:13:11;69.32;;;36.33;;
55575;SDS011;41437;45.478;9.116;2022-12-18T18:16:36;67.90;;;35.67;;
55575;SDS011;41437;45.478;9.116;2022-12-18T18:19:39;75.57;;;39.00;;
55575;SDS011;41437;45.478;9.116;2022-12-18T18:22:43;77.82;;;38.22;;
55575;SDS011;41437;45.478;9.116;2022-12-18T18:25:44;75.32;;;38.17;;
55575;SDS011;41437;45.478;9.116;2022-12-18T18:28:46;89.88;;;40.13;;
55575;SDS011;41437;45.478;9.116;2022-12-18T18:31:49;87.75;;;40.42;;
55575;SDS011;41437;45.478;9.116;2022-12-18T18:34:50;88.95;;;40.05;;
55575;SDS011;41437;45.478;9.116;2022-12-18T18:37:53;103.70;;;39.78;;
55575;SDS011;41437;45.478;9.116;2022-12-18T18:40:58;82.32;;;39.10;;
55575;SDS011;41437;45.478;9.116;2022-12-18T18:44:01;77.63;;;38.60;;
55575;SDS011;41437;45.478;9.116;2022-12-18T18:47:03;119.65;;;39.83;;